createdAt,value
2023-05-20T00:00:10.548Z,67.38
2023-05-20T00:01:15.836Z,67.46
2023-05-20T00:02:21.152Z,67.49
2023-05-20T00:03:25.885Z,67.51
2023-05-20T00:04:30.367Z,67.57
2023-05-20T00:05:35.893Z,67.60
2023-05-20T00:06:41.186Z,67.64
2023-05-20T00:07:45.751Z,67.66
2023-05-20T00:08:50.630Z,67.70
2023-05-20T00:09:54.907Z,67.74
2023-05-20T00:11:00.237Z,67.73
2023-05-20T00:12:04.737Z,67.77
2023-05-20T00:13:09.051Z,67.84
2023-05-20T00:14:14.004Z,67.84
2023-05-20T00:15:19.051Z,67.85
2023-05-20T00:16:24.225Z,67.85
2023-05-20T00:17:29.355Z,67.88
2023-05-20T00:18:34.322Z,67.87
2023-05-20T00:19:39.127Z,67.88
2023-05-20T00:20:44.316Z,67.89
2023-05-20T00:21:49.521Z,67.93
2023-05-20T00:22:54.657Z,67.92
2023-05-20T00:24:00.268Z,67.90
2023-05-20T00:25:04.877Z,67.94
2023-05-20T00:26:10.114Z,67.96
2023-05-20T00:27:14.733Z,68.04
2023-05-20T00:28:19.278Z,68.03
2023-05-20T00:29:24.879Z,68.10
2023-05-20T00:30:29.987Z,68.20
2023-05-20T00:31:35.056Z,68.23
2023-05-20T00:32:40.131Z,68.24
2023-05-20T00:33:45.190Z,68.22
2023-05-20T00:34:57.476Z,68.26
2023-05-20T00:36:02.727Z,68.26
2023-05-20T00:37:06.680Z,68.29
2023-05-20T00:38:11.005Z,68.30
2023-05-20T00:39:16.406Z,68.33
2023-05-20T00:40:21.101Z,68.34
2023-05-20T00:41:25.929Z,68.32
2023-05-20T00:42:30.082Z,68.33
2023-05-20T00:43:34.441Z,68.33
2023-05-20T00:44:39.558Z,68.32
2023-05-20T00:45:44.748Z,68.32
2023-05-20T00:46:49.800Z,68.40
2023-05-20T00:47:54.552Z,68.39
2023-05-20T00:48:59.177Z,68.39
2023-05-20T00:50:03.679Z,68.40
2023-05-20T00:51:08.895Z,68.42
2023-05-20T00:52:13.905Z,68.42
2023-05-20T00:54:26.601Z,68.58
2023-05-20T00:55:31.740Z,68.71
2023-05-20T00:56:36.360Z,68.72
2023-05-20T00:57:41.530Z,68.74
2023-05-20T00:58:46.705Z,68.75
2023-05-20T00:59:51.526Z,68.76
2023-05-20T01:00:56.734Z,68.76
2023-05-20T01:02:02.142Z,68.76
2023-05-20T01:03:07.280Z,68.76
2023-05-20T01:04:12.322Z,68.70
2023-05-20T01:05:17.371Z,68.67
2023-05-20T01:06:22.214Z,68.62
2023-05-20T01:07:26.840Z,68.69
2023-05-20T01:08:32.112Z,68.68
2023-05-20T01:09:37.576Z,68.70
2023-05-20T01:10:44.896Z,68.71
2023-05-20T01:11:50.109Z,68.74
2023-05-20T01:12:56.709Z,68.75
2023-05-20T01:14:03.230Z,68.75
2023-05-20T01:15:09.509Z,68.78
2023-05-20T01:16:14.481Z,68.72
2023-05-20T01:17:19.688Z,68.75
2023-05-20T01:18:25.812Z,68.82
2023-05-20T01:19:31.721Z,69.05
2023-05-20T01:20:36.722Z,69.04
2023-05-20T01:21:41.353Z,69.16
2023-05-20T01:24:03.399Z,69.34
2023-05-20T01:25:08.659Z,69.14
2023-05-20T01:26:14.618Z,69.14
2023-05-20T01:27:19.159Z,69.16
2023-05-20T01:28:23.775Z,69.11
2023-05-20T01:29:29.052Z,69.17
2023-05-20T01:30:34.959Z,69.06
2023-05-20T01:31:39.790Z,69.06
2023-05-20T01:32:53.816Z,69.01
2023-05-20T01:33:58.621Z,68.96
2023-05-20T01:35:02.948Z,68.99
2023-05-20T01:36:09.428Z,68.98
2023-05-20T01:37:14.250Z,68.93
2023-05-20T01:38:19.310Z,68.86
2023-05-20T01:39:23.959Z,68.92
2023-05-20T01:40:28.807Z,68.93
2023-05-20T01:41:33.309Z,68.98
2023-05-20T01:42:38.022Z,69.01
2023-05-20T01:43:42.549Z,68.97
2023-05-20T01:44:47.735Z,69.03
2023-05-20T01:45:52.858Z,69.06
2023-05-20T01:46:59.590Z,69.07
2023-05-20T01:48:05.111Z,69.01
2023-05-20T01:49:09.887Z,69.05
2023-05-20T01:50:15.232Z,69.03
2023-05-20T01:51:20.166Z,69.04
2023-05-20T01:52:23.186Z,69.15
2023-05-20T01:53:28.035Z,69.15
2023-05-20T01:54:32.711Z,69.09
2023-05-20T01:55:37.772Z,69.13
2023-05-20T01:56:42.308Z,69.12
2023-05-20T01:57:46.778Z,69.12
2023-05-20T01:58:52.002Z,69.08
2023-05-20T01:59:56.822Z,69.18
2023-05-20T02:01:01.267Z,69.23
2023-05-20T02:02:07.043Z,69.17
2023-05-20T02:03:13.699Z,69.11
2023-05-20T02:04:17.981Z,69.03
2023-05-20T02:05:22.641Z,68.98
2023-05-20T02:06:28.064Z,68.94
2023-05-20T02:07:33.016Z,68.89
2023-05-20T02:08:37.317Z,68.82
2023-05-20T02:09:42.880Z,68.75
2023-05-20T02:10:50.034Z,68.75
2023-05-20T02:11:55.183Z,68.75
2023-05-20T02:12:59.752Z,68.78
2023-05-20T02:14:04.405Z,68.77
2023-05-20T02:15:10.183Z,68.71
2023-05-20T02:16:14.537Z,68.71
2023-05-20T02:17:20.089Z,68.63
2023-05-20T02:18:24.827Z,68.56
2023-05-20T02:19:29.644Z,68.47
2023-05-20T02:20:33.961Z,68.28
2023-05-20T02:21:39.181Z,68.21
2023-05-20T02:22:44.237Z,68.24
2023-05-20T02:23:48.839Z,68.32
2023-05-20T02:24:53.372Z,68.28
2023-05-20T02:25:58.043Z,68.25
2023-05-20T02:27:02.767Z,68.21
2023-05-20T02:28:07.988Z,68.15
2023-05-20T02:29:12.771Z,68.08
2023-05-20T02:30:18.440Z,68.05
2023-05-20T02:31:23.673Z,67.91
2023-05-20T02:32:28.754Z,67.84
2023-05-20T02:33:33.291Z,67.78
2023-05-20T02:34:37.739Z,67.75
2023-05-20T02:35:42.935Z,67.70
2023-05-20T02:36:48.273Z,67.61
2023-05-20T02:37:53.487Z,67.37
2023-05-20T02:38:58.080Z,67.37
2023-05-20T02:40:03.202Z,67.41
2023-05-20T02:41:07.853Z,67.37
2023-05-20T02:42:14.630Z,67.36
2023-05-20T02:43:19.720Z,67.42
2023-05-20T02:44:24.856Z,67.34
2023-05-20T02:45:29.884Z,67.38
2023-05-20T02:46:35.149Z,67.40
2023-05-20T02:47:39.927Z,67.33
2023-05-20T02:48:44.913Z,67.31
2023-05-20T02:49:50.118Z,67.22
2023-05-20T02:50:54.606Z,67.18
2023-05-20T02:51:59.601Z,67.10
2023-05-20T02:53:01.954Z,67.12
2023-05-20T02:54:06.981Z,66.97
2023-05-20T02:55:12.241Z,66.92
2023-05-20T02:56:17.335Z,66.92
2023-05-20T02:57:22.498Z,66.87
2023-05-20T02:58:27.185Z,66.87
2023-05-20T02:59:37.069Z,66.90
2023-05-20T03:00:41.723Z,66.79
2023-05-20T03:01:46.344Z,66.76
2023-05-20T03:02:51.119Z,66.63
2023-05-20T03:03:56.331Z,66.59
2023-05-20T03:05:01.404Z,66.49
2023-05-20T03:06:07.891Z,66.51
2023-05-20T03:07:12.943Z,66.50
2023-05-20T03:08:18.067Z,66.56
2023-05-20T03:09:23.052Z,66.48
2023-05-20T03:10:27.787Z,66.46
2023-05-20T03:11:32.384Z,66.39
2023-05-20T03:12:37.583Z,66.38
2023-05-20T03:13:42.754Z,66.33
2023-05-20T03:14:47.777Z,66.35
2023-05-20T03:15:52.808Z,66.30
2023-05-20T03:16:57.571Z,66.35
2023-05-20T03:18:02.202Z,66.30
2023-05-20T03:19:06.730Z,66.09
2023-05-20T03:20:15.172Z,66.23
2023-05-20T03:21:19.712Z,66.20
2023-05-20T03:22:24.356Z,66.20
2023-05-20T03:23:29.443Z,66.10
2023-05-20T03:24:34.505Z,66.13
2023-05-20T03:25:39.096Z,66.09
2023-05-20T03:26:43.520Z,66.05
2023-05-20T03:27:49.292Z,66.00
2023-05-20T03:28:53.933Z,65.85
2023-05-20T03:29:58.637Z,65.80
2023-05-20T03:31:03.611Z,65.71
2023-05-20T03:32:10.886Z,65.69
2023-05-20T03:33:15.292Z,65.61
2023-05-20T03:34:20.530Z,65.73
2023-05-20T03:35:26.086Z,65.68
2023-05-20T03:36:31.327Z,65.76
2023-05-20T03:37:36.019Z,65.75
2023-05-20T03:38:41.215Z,65.74
2023-05-20T03:39:46.228Z,65.68
2023-05-20T03:40:50.814Z,65.57
2023-05-20T03:41:57.165Z,65.62
2023-05-20T03:43:01.660Z,65.58
2023-05-20T03:44:05.705Z,65.59
2023-05-20T03:45:10.981Z,65.57
2023-05-20T03:46:18.266Z,65.47
2023-05-20T03:47:23.298Z,65.42
2023-05-20T03:48:28.280Z,65.35
2023-05-20T03:49:32.995Z,65.39
2023-05-20T03:50:38.328Z,65.49
2023-05-20T03:51:43.452Z,65.52
2023-05-20T03:52:49.609Z,65.46
2023-05-20T03:53:56.210Z,65.42
2023-05-20T03:55:01.410Z,65.37
2023-05-20T03:56:07.199Z,65.25
2023-05-20T03:57:12.058Z,65.19
2023-05-20T03:58:17.849Z,65.10
2023-05-20T03:59:23.840Z,65.30
2023-05-20T04:00:28.561Z,65.34
2023-05-20T04:01:33.315Z,65.35
2023-05-20T04:02:38.660Z,65.34
2023-05-20T04:03:43.913Z,65.34
2023-05-20T04:04:48.544Z,65.34
2023-05-20T04:05:53.680Z,65.39
2023-05-20T04:06:58.484Z,65.41
2023-05-20T04:08:03.914Z,65.45
2023-05-20T04:09:08.409Z,65.57
2023-05-20T04:10:14.795Z,65.66
2023-05-20T04:11:19.312Z,65.68
2023-05-20T04:12:24.416Z,65.71
2023-05-20T04:13:29.182Z,65.70
2023-05-20T04:14:35.699Z,65.69
2023-05-20T04:15:40.842Z,65.67
2023-05-20T04:16:46.012Z,65.60
2023-05-20T04:17:50.647Z,65.60
2023-05-20T04:18:55.187Z,65.68
2023-05-20T04:20:01.497Z,65.65
2023-05-20T04:21:07.242Z,65.71
2023-05-20T04:22:14.034Z,65.66
2023-05-20T04:23:18.726Z,65.62
2023-05-20T04:24:23.559Z,65.54
2023-05-20T04:25:28.710Z,65.51
2023-05-20T04:26:33.405Z,65.50
2023-05-20T04:27:38.816Z,65.38
2023-05-20T04:28:44.213Z,65.38
2023-05-20T04:29:49.420Z,65.38
2023-05-20T04:30:59.977Z,65.25
2023-05-20T04:32:04.588Z,65.10
2023-05-20T04:33:09.382Z,65.02
2023-05-20T04:34:16.096Z,64.89
2023-05-20T04:35:20.742Z,64.91
2023-05-20T04:36:26.467Z,64.82
2023-05-20T04:37:31.590Z,64.87
2023-05-20T04:38:36.345Z,64.88
2023-05-20T04:39:40.962Z,64.93
2023-05-20T04:40:46.242Z,64.86
2023-05-20T04:41:51.193Z,64.84
2023-05-20T04:42:56.409Z,64.83
2023-05-20T04:44:01.519Z,64.88
2023-05-20T04:45:09.647Z,64.79
2023-05-20T04:46:15.383Z,64.74
2023-05-20T04:47:20.690Z,64.63
2023-05-20T04:48:26.418Z,64.54
2023-05-20T04:49:31.092Z,64.47
2023-05-20T04:50:35.798Z,64.34
2023-05-20T04:51:40.972Z,64.41
2023-05-20T04:52:45.604Z,64.36
2023-05-20T04:53:49.859Z,64.31
2023-05-20T04:54:56.113Z,64.22
2023-05-20T04:56:00.688Z,64.02
2023-05-20T04:57:06.430Z,63.83
2023-05-20T04:58:12.237Z,63.71
2023-05-20T04:59:16.802Z,63.40
2023-05-20T05:00:21.515Z,63.03
2023-05-20T05:01:26.970Z,62.64
2023-05-20T05:02:32.071Z,62.37
2023-05-20T05:03:37.344Z,62.31
2023-05-20T05:04:42.158Z,62.19
2023-05-20T05:05:47.235Z,62.10
2023-05-20T05:06:52.664Z,61.83
2023-05-20T05:07:57.756Z,61.60
2023-05-20T05:09:03.058Z,61.62
2023-05-20T05:10:07.572Z,61.37
2023-05-20T05:11:12.938Z,61.24
2023-05-20T05:12:18.039Z,61.30
2023-05-20T05:13:23.302Z,61.33
2023-05-20T05:14:27.816Z,61.38
2023-05-20T05:15:33.132Z,61.13
2023-05-20T05:16:39.245Z,61.34
2023-05-20T05:17:43.986Z,61.36
2023-05-20T05:18:49.612Z,61.36
2023-05-20T05:19:55.167Z,61.24
2023-05-20T05:21:04.084Z,61.14
2023-05-20T05:22:09.736Z,61.11
2023-05-20T05:23:14.303Z,61.18
2023-05-20T05:24:19.017Z,61.11
2023-05-20T05:25:25.441Z,60.96
2023-05-20T05:26:30.677Z,60.80
2023-05-20T05:27:35.715Z,60.45
2023-05-20T05:28:40.910Z,60.23
2023-05-20T05:29:45.554Z,59.65
2023-05-20T05:30:50.306Z,59.61
2023-05-20T05:31:54.941Z,59.76
2023-05-20T05:33:01.625Z,59.94
2023-05-20T05:34:06.276Z,59.90
2023-05-20T05:35:11.921Z,59.94
2023-05-20T05:36:18.658Z,59.88
2023-05-20T05:37:23.834Z,59.54
2023-05-20T05:38:29.784Z,59.11
2023-05-20T05:39:35.014Z,58.96
2023-05-20T05:40:40.064Z,58.88
2023-05-20T05:41:45.291Z,58.91
2023-05-20T05:42:50.306Z,58.90
2023-05-20T05:43:55.929Z,58.61
2023-05-20T05:45:01.120Z,58.63
2023-05-20T05:46:06.583Z,58.50
2023-05-20T05:47:11.329Z,58.33
2023-05-20T05:48:17.319Z,57.91
2023-05-20T05:49:22.408Z,57.72
2023-05-20T05:50:27.555Z,57.40
2023-05-20T05:51:32.729Z,56.58
2023-05-20T05:52:38.658Z,56.65
2023-05-20T05:53:44.939Z,56.66
2023-05-20T05:54:49.246Z,56.58
2023-05-20T05:55:54.484Z,56.41
2023-05-20T05:56:59.109Z,55.55
2023-05-20T05:58:04.960Z,55.83
2023-05-20T05:59:09.683Z,55.67
2023-05-20T06:00:16.699Z,55.71
2023-05-20T06:01:24.079Z,55.71
2023-05-20T06:02:28.977Z,55.51
2023-05-20T06:03:33.685Z,55.23
2023-05-20T06:04:39.195Z,54.82
2023-05-20T06:05:48.303Z,54.43
2023-05-20T06:06:53.354Z,54.43
2023-05-20T06:07:58.473Z,54.31
2023-05-20T06:09:03.498Z,53.92
2023-05-20T06:10:08.375Z,53.90
2023-05-20T06:11:14.613Z,53.84
2023-05-20T06:12:23.844Z,53.50
2023-05-20T06:13:28.526Z,54.08
2023-05-20T06:14:35.568Z,53.77
2023-05-20T06:15:42.139Z,53.69
2023-05-20T06:16:47.326Z,53.85
2023-05-20T06:17:52.432Z,53.78
2023-05-20T06:18:57.777Z,53.21
2023-05-20T06:20:02.885Z,53.03
2023-05-20T06:21:07.618Z,52.86
2023-05-20T06:22:12.204Z,52.71
2023-05-20T06:23:17.899Z,52.71
2023-05-20T06:24:29.736Z,52.77
2023-05-20T06:25:35.140Z,52.64
2023-05-20T06:26:37.555Z,52.61
2023-05-20T06:27:42.880Z,52.65
2023-05-20T06:28:49.118Z,52.55
2023-05-20T06:29:54.361Z,52.04
2023-05-20T06:30:58.848Z,52.12
2023-05-20T06:32:05.069Z,52.09
2023-05-20T06:33:07.975Z,51.82
2023-05-20T06:34:12.854Z,51.53
2023-05-20T06:35:17.634Z,51.32
2023-05-20T06:36:22.368Z,50.70
2023-05-20T06:37:27.914Z,50.86
2023-05-20T06:38:32.891Z,50.83
2023-05-20T06:39:38.128Z,50.74
2023-05-20T06:40:43.683Z,50.41
2023-05-20T06:41:48.670Z,50.72
2023-05-20T06:42:55.378Z,50.62
2023-05-20T06:44:02.337Z,50.77
2023-05-20T06:45:14.991Z,50.63
2023-05-20T06:46:30.976Z,50.23
2023-05-20T06:47:40.176Z,49.49
2023-05-20T06:48:45.159Z,49.34
2023-05-20T06:49:50.129Z,49.42
2023-05-20T06:50:54.665Z,49.46
2023-05-20T06:51:59.344Z,49.52
2023-05-20T06:53:04.032Z,48.54
2023-05-20T06:54:09.697Z,48.98
2023-05-20T06:55:16.011Z,48.53
2023-05-20T06:56:21.257Z,48.90
2023-05-20T06:57:26.373Z,48.72
2023-05-20T06:58:31.609Z,48.67
2023-05-20T06:59:36.717Z,48.71
2023-05-20T07:00:42.295Z,48.58
2023-05-20T07:01:47.376Z,48.27
2023-05-20T07:02:52.173Z,47.90
2023-05-20T07:03:58.320Z,48.16
2023-05-20T07:05:03.356Z,47.98
2023-05-20T07:06:08.022Z,47.98
2023-05-20T07:07:14.509Z,47.57
2023-05-20T07:08:19.578Z,47.72
2023-05-20T07:09:25.612Z,47.47
2023-05-20T07:10:30.320Z,47.42
2023-05-20T07:16:09.559Z,46.84
2023-05-20T07:17:16.201Z,46.20
2023-05-20T07:18:22.306Z,46.30
2023-05-20T07:19:31.527Z,46.55
2023-05-20T07:20:36.317Z,46.60
2023-05-20T07:21:43.575Z,46.41
2023-05-20T07:23:00.112Z,46.35
2023-05-20T07:24:12.156Z,46.23
2023-05-20T07:25:16.937Z,45.73
2023-05-20T07:26:21.514Z,46.02
2023-05-20T07:27:26.142Z,45.99
2023-05-20T07:28:31.450Z,45.53
2023-05-20T07:29:37.691Z,45.74
2023-05-20T07:30:42.489Z,45.85
2023-05-20T07:31:55.184Z,45.67
2023-05-20T07:32:59.674Z,44.45
2023-05-20T07:34:05.066Z,45.07
2023-05-20T07:35:10.439Z,44.74
2023-05-20T07:36:15.635Z,44.50
2023-05-20T07:37:22.506Z,44.70
2023-05-20T07:38:28.019Z,44.71
2023-05-20T07:39:37.074Z,44.34
2023-05-20T07:40:44.165Z,44.45
2023-05-20T07:41:49.011Z,43.97
2023-05-20T07:42:53.703Z,43.87
2023-05-20T07:43:59.082Z,43.54
2023-05-20T07:45:03.517Z,43.17
2023-05-20T07:46:08.118Z,43.59
2023-05-20T07:47:13.375Z,43.51
2023-05-20T07:48:18.385Z,44.04
2023-05-20T07:49:23.402Z,43.83
2023-05-20T07:50:28.189Z,43.87
2023-05-20T07:51:33.458Z,43.02
2023-05-20T07:52:51.828Z,43.04
2023-05-20T07:53:44.698Z,42.71
2023-05-20T07:54:49.871Z,42.35
2023-05-20T07:55:55.039Z,42.14
2023-05-20T07:56:59.968Z,41.57
2023-05-20T07:58:05.803Z,42.03
2023-05-20T07:59:12.536Z,42.28
2023-05-20T08:00:20.244Z,42.27
2023-05-20T08:01:24.925Z,42.41
2023-05-20T08:02:29.722Z,42.58
2023-05-20T08:03:35.357Z,42.34
2023-05-20T08:04:42.634Z,42.10
2023-05-20T08:05:47.547Z,42.07
2023-05-20T08:06:52.253Z,41.61
2023-05-20T08:07:59.128Z,41.44
2023-05-20T08:09:05.225Z,41.63
2023-05-20T08:10:13.560Z,40.47
2023-05-20T08:11:20.166Z,40.78
2023-05-20T08:12:25.050Z,41.01
2023-05-20T08:13:30.547Z,40.82
2023-05-20T08:14:36.827Z,40.88
2023-05-20T08:15:42.139Z,41.10
2023-05-20T08:16:46.642Z,41.29
2023-05-20T08:17:52.242Z,41.51
2023-05-20T08:18:57.598Z,41.42
2023-05-20T08:20:02.092Z,40.53
2023-05-20T08:21:10.322Z,40.66
2023-05-20T08:22:14.795Z,40.79
2023-05-20T08:23:19.979Z,41.18
2023-05-20T08:24:25.122Z,41.33
2023-05-20T08:25:31.167Z,41.47
2023-05-20T08:26:35.709Z,41.31
2023-05-20T08:27:40.600Z,41.10
2023-05-20T08:28:45.331Z,40.74
2023-05-20T08:29:50.620Z,40.89
2023-05-20T08:30:55.113Z,40.97
2023-05-20T08:31:59.711Z,41.02
2023-05-20T08:33:04.299Z,40.89
2023-05-20T08:34:09.871Z,41.19
2023-05-20T08:35:15.018Z,40.76
2023-05-20T08:36:20.374Z,40.56
2023-05-20T08:37:24.488Z,40.96
2023-05-20T08:38:29.600Z,40.68
2023-05-20T08:39:34.655Z,40.32
2023-05-20T08:40:39.902Z,40.22
2023-05-20T08:41:45.120Z,40.17
2023-05-20T08:42:53.886Z,39.87
2023-05-20T08:43:59.284Z,39.95
2023-05-20T08:45:04.432Z,39.85
2023-05-20T08:46:11.579Z,38.68
2023-05-20T08:47:17.414Z,38.98
2023-05-20T08:48:21.721Z,39.06
2023-05-20T08:49:26.453Z,38.88
2023-05-20T08:50:31.611Z,38.78
2023-05-20T08:51:36.693Z,38.63
2023-05-20T08:53:53.763Z,38.76
2023-05-20T08:54:58.688Z,38.68
2023-05-20T08:56:01.698Z,38.55
2023-05-20T08:57:08.246Z,38.27
2023-05-20T08:58:13.390Z,38.47
2023-05-20T08:59:17.416Z,38.20
2023-05-20T09:00:23.202Z,38.44
2023-05-20T09:01:28.041Z,38.37
2023-05-20T09:02:33.206Z,38.24
2023-05-20T09:03:38.184Z,38.60
2023-05-20T09:04:43.191Z,38.20
2023-05-20T09:05:48.803Z,37.92
2023-05-20T09:06:54.033Z,37.75
2023-05-20T09:08:12.626Z,37.95
2023-05-20T09:09:17.551Z,38.35
2023-05-20T09:10:22.382Z,38.57
2023-05-20T09:11:27.669Z,38.50
2023-05-20T09:12:32.271Z,38.82
2023-05-20T09:13:37.015Z,38.74
2023-05-20T09:14:42.083Z,38.70
2023-05-20T09:15:47.210Z,38.73
2023-05-20T09:16:52.893Z,38.73
2023-05-20T09:17:57.605Z,38.76
2023-05-20T09:19:02.216Z,38.71
2023-05-20T09:20:11.348Z,38.63
2023-05-20T09:21:15.682Z,38.75
2023-05-20T09:27:54.426Z,38.71
2023-05-20T09:29:00.631Z,38.66
2023-05-20T09:30:06.539Z,38.49
2023-05-20T09:31:11.190Z,38.24
2023-05-20T09:32:15.904Z,38.50
2023-05-20T09:33:20.608Z,38.56
2023-05-20T09:34:26.533Z,38.35
2023-05-20T09:35:31.743Z,37.99
2023-05-20T09:36:36.805Z,38.09
2023-05-20T09:37:41.577Z,38.21
2023-05-20T09:38:46.696Z,38.02
2023-05-20T09:40:05.100Z,38.35
2023-05-20T09:42:25.159Z,38.12
2023-05-20T09:43:30.167Z,38.17
2023-05-20T09:44:33.599Z,38.16
2023-05-20T09:45:37.028Z,37.74
2023-05-20T09:46:42.603Z,37.74
2023-05-20T09:47:47.442Z,37.69
2023-05-20T09:48:53.439Z,37.72
2023-05-20T09:49:58.566Z,37.68
2023-05-20T09:51:03.730Z,37.49
2023-05-20T09:52:07.476Z,37.61
2023-05-20T09:53:12.781Z,37.65
2023-05-20T09:54:17.591Z,37.69
2023-05-20T09:55:25.740Z,37.29
2023-05-20T09:56:30.858Z,37.86
2023-05-20T09:58:44.914Z,37.44
2023-05-20T09:59:49.103Z,37.13
2023-05-20T10:00:53.433Z,37.26
2023-05-20T10:01:58.462Z,37.30
2023-05-20T10:03:03.907Z,37.32
2023-05-20T10:04:09.619Z,37.37
2023-05-20T10:05:18.506Z,37.13
2023-05-20T10:06:33.467Z,36.98
2023-05-20T10:08:15.397Z,36.64
2023-05-20T10:11:16.284Z,36.76
2023-05-20T10:12:34.130Z,36.52
2023-05-20T10:15:35.243Z,36.38
2023-05-20T10:17:03.319Z,36.54
2023-05-20T10:18:26.879Z,36.81
2023-05-20T10:19:34.090Z,36.63
2023-05-20T10:22:11.913Z,36.47
2023-05-20T10:23:26.706Z,36.60
2023-05-20T10:24:37.859Z,36.81
2023-05-20T10:25:43.880Z,36.86
2023-05-20T10:28:09.228Z,36.63
2023-05-20T10:29:15.954Z,36.64
2023-05-20T10:30:22.739Z,36.66
2023-05-20T10:31:27.305Z,36.68
2023-05-20T10:32:32.003Z,36.75
2023-05-20T10:33:40.901Z,37.33
2023-05-20T10:34:46.355Z,37.44
2023-05-20T10:35:54.104Z,37.53
2023-05-20T10:37:00.069Z,37.24
2023-05-20T10:38:14.157Z,37.52
2023-05-20T10:39:18.655Z,37.72
2023-05-20T10:40:24.834Z,37.52
2023-05-20T10:41:31.786Z,37.44
2023-05-20T10:42:36.800Z,37.71
2023-05-20T10:43:41.412Z,37.42
2023-05-20T10:44:48.107Z,37.38
2023-05-20T10:45:57.301Z,37.15
2023-05-20T10:48:11.466Z,37.08
2023-05-20T10:49:26.753Z,37.00
2023-05-20T10:50:36.447Z,37.30
2023-05-20T10:51:40.923Z,37.69
2023-05-20T10:52:45.336Z,37.99
2023-05-20T10:53:50.063Z,37.30
2023-05-20T10:55:00.290Z,37.62
2023-05-20T10:56:05.408Z,37.17
2023-05-20T10:57:11.112Z,37.50
2023-05-20T10:58:16.352Z,37.35
2023-05-20T10:59:21.687Z,37.26
2023-05-20T11:00:26.496Z,37.32
2023-05-20T11:01:32.198Z,37.31
2023-05-20T11:02:36.924Z,37.48
2023-05-20T11:03:48.173Z,38.07
2023-05-20T11:04:53.308Z,37.94
2023-05-20T11:05:57.942Z,37.54
2023-05-20T11:07:03.084Z,37.24
2023-05-20T11:08:27.157Z,37.34
2023-05-20T11:09:19.216Z,37.45
2023-05-20T11:10:23.719Z,37.72
2023-05-20T11:11:28.997Z,37.65
2023-05-20T11:12:35.169Z,37.69
2023-05-20T11:13:39.902Z,37.49
2023-05-20T11:14:45.119Z,37.59
2023-05-20T11:15:48.766Z,37.50
2023-05-20T11:16:54.832Z,37.31
2023-05-20T11:18:03.374Z,37.38
2023-05-20T11:19:10.255Z,37.06
2023-05-20T11:20:16.752Z,36.63
2023-05-20T11:21:21.891Z,36.65
2023-05-20T11:22:26.978Z,36.40
2023-05-20T11:23:29.999Z,36.55
2023-05-20T11:24:34.590Z,36.42
2023-05-20T11:25:39.576Z,36.68
2023-05-20T11:26:44.286Z,36.86
2023-05-20T11:27:48.986Z,37.09
2023-05-20T11:28:51.717Z,37.02
2023-05-20T11:29:56.129Z,36.98
2023-05-20T11:30:59.807Z,36.82
2023-05-20T11:32:04.358Z,36.57
2023-05-20T11:33:09.066Z,36.54
2023-05-20T11:34:13.797Z,36.19
2023-05-20T11:36:31.511Z,36.50
2023-05-20T11:37:38.453Z,36.37
2023-05-20T11:38:43.640Z,36.00
2023-05-20T11:39:48.258Z,36.18
2023-05-20T11:40:53.425Z,36.10
2023-05-20T11:41:59.240Z,35.73
2023-05-20T11:43:04.869Z,36.03
2023-05-20T11:44:11.735Z,36.03
2023-05-20T11:45:16.105Z,35.99
2023-05-20T11:46:20.452Z,35.78
2023-05-20T11:47:28.356Z,35.96
2023-05-20T11:48:33.644Z,35.95
2023-05-20T11:49:42.411Z,36.05
2023-05-20T11:50:49.625Z,36.02
2023-05-20T11:51:54.346Z,35.80
2023-05-20T11:53:01.042Z,35.52
2023-05-20T11:54:06.548Z,35.50
2023-05-20T11:55:14.656Z,35.39
2023-05-20T11:56:19.686Z,35.40
2023-05-20T11:57:24.728Z,35.56
2023-05-20T11:59:37.382Z,35.58
2023-05-20T12:00:50.562Z,35.71
2023-05-20T12:01:49.512Z,35.42
2023-05-20T12:02:54.127Z,35.50
2023-05-20T12:03:59.590Z,35.15
2023-05-20T12:05:04.785Z,35.17
2023-05-20T12:06:10.521Z,35.28
2023-05-20T12:07:15.291Z,35.03
2023-05-20T12:08:20.402Z,35.11
2023-05-20T12:09:24.966Z,35.24
2023-05-20T12:10:30.012Z,35.32
2023-05-20T12:12:48.402Z,35.49
2023-05-20T12:13:53.165Z,35.46
2023-05-20T12:14:58.300Z,34.75
2023-05-20T12:16:02.920Z,35.33
2023-05-20T12:17:07.677Z,35.20
2023-05-20T12:18:13.367Z,35.57
2023-05-20T12:19:18.776Z,35.34
2023-05-20T12:20:25.804Z,35.37
2023-05-20T12:22:38.531Z,35.38
2023-05-20T12:23:43.519Z,34.79
2023-05-20T12:24:48.673Z,35.05
2023-05-20T12:25:53.444Z,35.22
2023-05-20T12:26:58.230Z,35.20
2023-05-20T12:28:04.003Z,35.00
2023-05-20T12:29:08.540Z,34.92
2023-05-20T12:31:27.326Z,35.00
2023-05-20T12:32:31.602Z,34.87
2023-05-20T12:33:36.933Z,35.01
2023-05-20T12:34:41.725Z,34.76
2023-05-20T12:35:47.024Z,34.69
2023-05-20T12:36:51.897Z,34.64
2023-05-20T12:37:56.949Z,34.54
2023-05-20T12:39:01.616Z,34.63
2023-05-20T12:40:07.117Z,34.05
2023-05-20T12:41:11.712Z,33.59
2023-05-20T12:42:16.785Z,33.30
2023-05-20T12:43:21.894Z,33.77
2023-05-20T12:44:27.080Z,33.93
2023-05-20T12:45:32.266Z,34.41
2023-05-20T12:46:39.022Z,34.20
2023-05-20T12:47:43.697Z,34.12
2023-05-20T12:48:49.742Z,34.10
2023-05-20T12:49:54.994Z,34.00
2023-05-20T12:50:59.574Z,34.32
2023-05-20T12:52:08.593Z,34.46
2023-05-20T12:53:11.521Z,34.41
2023-05-20T12:54:16.061Z,34.12
2023-05-20T12:55:20.385Z,33.73
2023-05-20T12:56:25.085Z,33.79
2023-05-20T12:57:30.220Z,32.97
2023-05-20T12:58:34.579Z,33.15
2023-05-20T12:59:39.734Z,33.33
2023-05-20T13:00:44.509Z,33.24
2023-05-20T13:01:50.239Z,33.18
2023-05-20T13:02:55.567Z,33.10
2023-05-20T13:04:00.046Z,32.88
2023-05-20T13:05:04.550Z,32.55
2023-05-20T13:06:09.589Z,32.74
2023-05-20T13:07:14.295Z,32.60
2023-05-20T13:08:18.911Z,32.88
2023-05-20T13:09:23.365Z,32.97
2023-05-20T13:10:28.623Z,32.68
2023-05-20T13:11:33.622Z,32.71
2023-05-20T13:12:38.292Z,32.87
2023-05-20T13:13:43.659Z,32.50
2023-05-20T13:14:48.668Z,32.37
2023-05-20T13:15:53.653Z,32.44
2023-05-20T13:16:58.296Z,32.32
2023-05-20T13:18:03.325Z,32.36
2023-05-20T13:19:08.412Z,31.93
2023-05-20T13:20:14.576Z,32.00
2023-05-20T13:21:19.549Z,32.14
2023-05-20T13:22:25.324Z,32.20
2023-05-20T13:23:30.289Z,32.11
2023-05-20T13:24:36.280Z,32.19
2023-05-20T13:25:41.388Z,31.95
2023-05-20T13:26:45.836Z,31.99
2023-05-20T13:27:51.195Z,31.83
2023-05-20T13:28:56.412Z,31.52
2023-05-20T13:30:01.138Z,31.57
2023-05-20T13:31:07.292Z,32.11
2023-05-20T13:32:11.888Z,32.19
2023-05-20T13:33:16.394Z,32.34
2023-05-20T13:34:22.079Z,32.41
2023-05-20T13:35:27.202Z,32.37
2023-05-20T13:36:32.011Z,32.35
2023-05-20T13:37:37.108Z,32.45
2023-05-20T13:38:41.624Z,32.23
2023-05-20T13:39:46.643Z,32.02
2023-05-20T13:40:51.734Z,32.17
2023-05-20T13:41:56.334Z,32.14
2023-05-20T13:43:01.494Z,32.19
2023-05-20T13:44:06.920Z,32.37
2023-05-20T13:45:12.716Z,32.12
2023-05-20T13:46:18.172Z,32.09
2023-05-20T13:47:23.244Z,32.36
2023-05-20T13:48:28.331Z,32.09
2023-05-20T13:49:33.486Z,32.01
2023-05-20T13:50:38.893Z,31.94
2023-05-20T13:51:44.231Z,31.61
2023-05-20T13:52:49.259Z,31.96
2023-05-20T13:53:53.726Z,31.77
2023-05-20T13:54:58.414Z,31.86
2023-05-20T13:56:03.465Z,31.90
2023-05-20T13:57:10.060Z,31.14
2023-05-20T13:58:15.088Z,30.91
2023-05-20T13:59:20.091Z,30.50
2023-05-20T14:00:25.226Z,30.48
2023-05-20T14:01:32.035Z,30.55
2023-05-20T14:02:37.159Z,30.98
2023-05-20T14:03:43.250Z,31.23
2023-05-20T14:04:48.466Z,31.23
2023-05-20T14:05:53.062Z,31.32
2023-05-20T14:06:57.939Z,31.18
2023-05-20T14:08:03.049Z,31.14
2023-05-20T14:09:09.219Z,31.15
2023-05-20T14:10:14.327Z,30.99
2023-05-20T14:11:18.567Z,31.11
2023-05-20T14:12:23.581Z,30.93
2023-05-20T14:13:28.730Z,30.91
2023-05-20T14:14:34.008Z,30.90
2023-05-20T14:15:40.148Z,30.79
2023-05-20T14:16:45.311Z,30.87
2023-05-20T14:17:50.221Z,30.86
2023-05-20T14:18:55.258Z,30.53
2023-05-20T14:20:00.788Z,30.40
2023-05-20T14:21:06.092Z,30.72
2023-05-20T14:22:11.176Z,31.01
2023-05-20T14:23:15.899Z,30.87
2023-05-20T14:24:23.470Z,30.74
2023-05-20T14:25:27.786Z,30.89
2023-05-20T14:26:32.424Z,30.75
2023-05-20T14:27:37.603Z,30.87
2023-05-20T14:28:42.061Z,30.42
2023-05-20T14:29:46.701Z,30.36
2023-05-20T14:30:51.771Z,30.06
2023-05-20T14:31:54.202Z,30.29
2023-05-20T14:32:59.064Z,30.47
2023-05-20T14:34:05.712Z,30.50